Terminal Aerodrome Forecast
Issued by NWS

Home | Current Version | Previous Version | Text Only | Print | Product List | Glossary On
Versions: 1 2 3 4 5 6 7 8 9 10 11 12 13 14 15
000
FTAK31 PAJN 270500
TAFASI
TAF
PASI 270530Z 2706/2806 11006KT P6SM VCSH BKN035 OVC050
      TEMPO 2706/2710 14008KT 6SM -SHRA BKN020 OVC030
     FM271300 16005KT P6SM VCSH SCT030 OVC040
     FM272100 22005KT P6SM SCT035 BKN060=

USA.gov is the U.S. government's official web portal to all federal, state and local government web resources and services.